Time;durP1;ratioP1;P1;durP2;ratioP2;P2;SDS_P1;SDS_P2;PMS_P1;PMS_P2;Temp;Humidity;BMP_temperature;BMP_pressure;BME280_temperature;BME280_humidity;BME280_pressure;Samples;Min_cycle;Max_cycle;Signal;HPM_P1;HPM_P2
2022/06/04 00:00:37;;;;;;;19.90;9.05;;;11.30;99.90;;;;;;5075486;28;20489;-74
2022/06/04 00:03:04;;;;;;;18.15;9.68;;;11.30;99.90;;;;;;5072777;28;20497;-75
2022/06/04 00:05:33;;;;;;;19.42;11.82;;;11.30;99.90;;;;;;5071260;28;20500;-74
2022/06/04 00:08:01;;;;;;;19.25;11.93;;;11.30;99.90;;;;;;5052131;28;20040;-74
2022/06/04 00:16:00;;;;;;;18.25;13.23;;;11.20;99.90;;;;;;5057929;28;20044;-74
2022/06/04 00:18:26;;;;;;;20.92;13.07;;;11.30;99.90;;;;;;5060145;28;20049;-74
2022/06/04 00:20:53;;;;;;;19.63;12.88;;;11.30;99.90;;;;;;5039649;28;20102;-74
2022/06/04 00:23:20;;;;;;;25.30;12.93;;;11.20;99.90;;;;;;5041378;28;20137;-74
2022/06/04 00:25:49;;;;;;;21.33;12.55;;;11.20;99.90;;;;;;5038782;28;20060;-74
2022/06/04 00:28:16;;;;;;;22.15;12.63;;;11.20;99.90;;;;;;5072334;28;20053;-74
2022/06/04 00:30:42;;;;;;;22.42;13.18;;;11.20;99.90;;;;;;5062108;28;20186;-74
2022/06/04 00:33:09;;;;;;;20.40;13.38;;;11.10;99.90;;;;;;5069980;28;20049;-74
2022/06/04 00:35:35;;;;;;;24.67;13.73;;;11.10;99.90;;;;;;5070066;28;20052;-74
2022/06/04 00:38:03;;;;;;;22.77;13.25;;;11.10;99.90;;;;;;5023932;28;20053;-74
2022/06/04 00:40:41;;;;;;;17.98;12.63;;;11.10;99.90;;;;;;5072960;28;20642;-74
2022/06/04 00:43:07;;;;;;;25.23;13.38;;;11.10;99.90;;;;;;5059411;28;20037;-74
2022/06/04 00:45:36;;;;;;;23.25;12.38;;;11.00;99.90;;;;;;5071125;28;20091;-74
2022/06/04 00:48:06;;;;;;;20.80;11.18;;;11.00;99.90;;;;;;5070661;28;20469;-74
2022/06/04 00:50:36;;;;;;;15.82;9.85;;;11.00;99.90;;;;;;5038412;28;20118;-75
2022/06/04 00:53:08;;;;;;;18.58;10.23;;;11.00;99.90;;;;;;5028640;28;20089;-75
2022/06/04 00:55:45;;;;;;;;;;;11.00;99.90;;;;;;5043153;28;20064;-75
2022/06/04 00:58:32;;;;;;;20.35;9.85;;;11.00;99.90;;;;;;5041811;28;19928;-74
2022/06/04 01:01:13;;;;;;;20.73;10.20;;;11.00;99.90;;;;;;5041027;28;20036;-75
2022/06/04 01:03:54;;;;;;;17.50;10.88;;;10.90;99.90;;;;;;5080657;28;20041;-75
2022/06/04 01:06:25;;;;;;;20.70;11.57;;;11.00;99.90;;;;;;5029733;28;20179;-74
2022/06/04 01:09:18;;;;;;;20.58;10.68;;;10.90;99.90;;;;;;5037633;28;20044;-74
2022/06/04 01:12:09;;;;;;;18.55;11.02;;;10.90;99.90;;;;;;5082603;28;20134;-75
2022/06/04 01:14:39;;;;;;;20.20;12.02;;;10.90;99.90;;;;;;5048745;28;20392;-74
2022/06/04 01:17:24;;;;;;;19.38;12.02;;;10.90;99.90;;;;;;5042007;28;20047;-74
2022/06/04 01:20:14;;;;;;;22.52;12.68;;;10.90;99.90;;;;;;5036383;28;20378;-74
2022/06/04 01:23:01;;;;;;;22.30;12.18;;;10.90;99.90;;;;;;5058947;28;20061;-74
2022/06/04 01:26:05;;;;;;;21.25;11.63;;;10.90;99.90;;;;;;5070488;28;20083;-74
2022/06/04 01:28:36;;;;;;;25.05;12.40;;;10.90;99.90;;;;;;5042603;28;20056;-74
2022/06/04 01:31:06;;;;;;;19.40;12.40;;;10.90;99.90;;;;;;5045351;28;20033;-74
2022/06/04 01:33:44;;;;;;;27.90;13.27;;;10.90;99.90;;;;;;5080250;28;20128;-74
2022/06/04 01:36:14;;;;;;;24.60;12.52;;;10.80;99.90;;;;;;5057233;28;20048;-75
2022/06/04 01:38:55;;;;;;;21.92;12.88;;;10.80;99.90;;;;;;5068695;28;20700;-75
2022/06/04 01:41:33;;;;;;;22.80;12.77;;;10.80;99.90;;;;;;5036683;28;20389;-75
2022/06/04 01:44:25;;;;;;;26.45;12.65;;;10.80;99.90;;;;;;5054476;28;20053;-75
2022/06/04 01:46:55;;;;;;;24.63;12.90;;;10.80;99.90;;;;;;5041902;28;20124;-74
2022/06/04 01:49:47;;;;;;;26.13;13.50;;;10.80;99.90;;;;;;5025347;28;20477;-74
2022/06/04 01:52:20;;;;;;;26.77;13.75;;;10.70;99.90;;;;;;5046157;28;20473;-74
2022/06/04 01:54:51;;;;;;;27.63;14.35;;;10.70;99.90;;;;;;5069374;28;20473;-74
2022/06/04 01:57:45;;;;;;;21.77;13.63;;;10.70;99.90;;;;;;5062525;28;20481;-74
2022/06/04 02:00:28;;;;;;;28.25;14.88;;;10.70;99.90;;;;;;5040285;28;20056;-74
2022/06/04 02:03:06;;;;;;;24.45;14.15;;;10.70;99.90;;;;;;5036864;28;20486;-74
2022/06/04 02:05:41;;;;;;;25.33;13.68;;;10.60;99.90;;;;;;5055165;28;20040;-74
2022/06/04 02:08:09;;;;;;;24.50;13.18;;;10.60;99.90;;;;;;5070994;28;20097;-74
2022/06/04 02:10:53;;;;;;;27.45;13.57;;;10.60;99.90;;;;;;5036691;28;20048;-74
2022/06/04 02:13:20;;;;;;;22.83;12.13;;;10.60;99.90;;;;;;5025979;28;20048;-74
2022/06/04 02:15:51;;;;;;;20.10;12.25;;;10.60;99.90;;;;;;5025569;28;20041;-73
2022/06/04 02:18:17;;;;;;;22.70;11.82;;;10.60;99.90;;;;;;5039250;28;20056;-74
2022/06/04 02:20:43;;;;;;;21.30;11.50;;;10.60;99.90;;;;;;5052636;28;20491;-74
2022/06/04 02:23:09;;;;;;;26.70;11.73;;;10.60;99.90;;;;;;5044423;28;20067;-74
2022/06/04 02:25:35;;;;;;;21.10;10.20;;;10.50;99.90;;;;;;5068051;28;20111;-74
2022/06/04 02:28:02;;;;;;;17.73;10.13;;;10.50;99.90;;;;;;5048551;28;20076;-74
2022/06/04 02:31:02;;;;;;;19.00;10.95;;;10.60;99.90;;;;;;5028593;28;20071;-74
2022/06/04 02:33:34;;;;;;;18.60;10.60;;;10.50;99.90;;;;;;5052991;28;20454;-74
2022/06/04 02:36:07;;;;;;;21.25;10.20;;;10.50;99.90;;;;;;5076092;28;20068;-74
2022/06/04 02:38:41;;;;;;;16.98;10.32;;;10.50;99.90;;;;;;5035304;28;20421;-74
2022/06/04 02:41:15;;;;;;;20.38;10.35;;;10.50;99.90;;;;;;5034847;28;20049;-74
2022/06/04 02:44:00;;;;;;;19.38;9.65;;;10.50;99.90;;;;;;5025797;28;20045;-74
2022/06/04 02:46:40;;;;;;;23.13;10.65;;;10.90;99.90;;;;;;5054772;28;20045;-74
2022/06/04 02:49:12;;;;;;;20.27;11.60;;;10.50;99.90;;;;;;5026367;28;20044;-74
2022/06/04 02:51:51;;;;;;;22.88;11.07;;;10.40;99.90;;;;;;5037758;28;20053;-74
2022/06/04 02:54:28;;;;;;;24.30;11.88;;;10.40;99.90;;;;;;5053168;28;20037;-74
2022/06/04 02:56:56;;;;;;;23.25;12.05;;;10.40;99.90;;;;;;5032707;28;20052;-74
2022/06/04 02:59:25;;;;;;;23.40;13.27;;;10.30;99.90;;;;;;5027561;28;20120;-74
2022/06/04 03:01:54;;;;;;;21.23;12.93;;;10.30;99.90;;;;;;5070765;28;20513;-74
2022/06/04 03:04:20;;;;;;;25.52;13.43;;;10.30;99.90;;;;;;5056110;28;20083;-74
2022/06/04 03:06:46;;;;;;;23.13;14.65;;;10.30;99.90;;;;;;5056381;28;20073;-74
2022/06/04 03:09:18;;;;;;;25.17;15.27;;;10.70;99.90;;;;;;5042373;28;20041;-74
2022/06/04 03:11:46;;;;;;;;;;;10.30;99.90;;;;;;5064719;28;20080;-74
2022/06/04 03:14:13;;;;;;;21.33;13.45;;;10.20;99.90;;;;;;5017668;28;19929;-74
2022/06/04 03:16:42;;;;;;;23.52;12.77;;;10.20;99.90;;;;;;5038406;28;20042;-74
2022/06/04 03:19:09;;;;;;;20.58;13.38;;;10.20;99.90;;;;;;5040407;28;20486;-74
2022/06/04 03:21:36;;;;;;;21.02;13.05;;;10.20;99.90;;;;;;5044696;28;20053;-74
2022/06/04 03:24:03;;;;;;;21.13;12.63;;;10.20;99.90;;;;;;5057824;28;20079;-73
2022/06/04 03:26:30;;;;;;;17.85;11.70;;;10.20;99.90;;;;;;5073985;28;20077;-73
2022/06/04 03:28:55;;;;;;;17.38;11.43;;;10.20;99.90;;;;;;5039133;28;20076;-74
2022/06/04 03:31:22;;;;;;;17.20;10.88;;;10.10;99.90;;;;;;5061118;28;20505;-73
2022/06/04 03:33:48;;;;;;;22.73;10.50;;;10.10;99.90;;;;;;5085819;28;20099;-74
2022/06/04 03:36:14;;;;;;;23.17;10.90;;;10.20;99.90;;;;;;5045321;28;20079;-73
2022/06/04 03:38:39;;;;;;;14.18;9.60;;;10.20;99.90;;;;;;5055551;28;20127;-74
2022/06/04 03:41:05;;;;;;;18.90;10.18;;;10.20;99.90;;;;;;5073440;28;20053;-74
2022/06/04 03:43:31;;;;;;;17.58;10.02;;;10.20;99.90;;;;;;5019854;28;20048;-75
2022/06/04 03:45:57;;;;;;;21.85;9.98;;;10.20;99.90;;;;;;5012403;28;20128;-75
2022/06/04 03:48:23;;;;;;;20.65;10.18;;;10.20;99.90;;;;;;5028522;28;20160;-74
2022/06/04 03:50:50;;;;;;;17.05;9.40;;;10.30;99.90;;;;;;5053874;28;20085;-74
2022/06/04 03:53:16;;;;;;;15.68;9.70;;;10.30;99.90;;;;;;5047469;28;20221;-74
2022/06/04 03:55:41;;;;;;;16.85;10.13;;;10.40;99.90;;;;;;5028073;28;20468;-74
2022/06/04 03:58:07;;;;;;;14.63;10.10;;;10.40;99.90;;;;;;5053294;28;20620;-74
2022/06/04 04:00:39;;;;;;;17.92;9.85;;;10.30;99.90;;;;;;5028229;28;20053;-73
2022/06/04 04:03:10;;;;;;;13.80;9.48;;;10.40;99.90;;;;;;5044079;28;20095;-73
2022/06/04 04:05:39;;;;;;;16.55;9.77;;;10.40;99.90;;;;;;5052758;28;20139;-74
2022/06/04 04:08:08;;;;;;;15.07;8.43;;;10.40;99.90;;;;;;5033177;28;20064;-74
2022/06/04 04:10:34;;;;;;;14.98;8.60;;;10.40;99.90;;;;;;5036589;28;20128;-74
2022/06/04 04:13:00;;;;;;;13.40;7.93;;;10.50;99.90;;;;;;5021854;28;20044;-73
2022/06/04 04:15:27;;;;;;;12.20;7.85;;;10.50;99.90;;;;;;5043816;28;20037;-74
2022/06/04 04:17:53;;;;;;;14.20;7.40;;;10.60;99.90;;;;;;5054601;28;20179;-73
2022/06/04 04:20:23;;;;;;;11.63;7.35;;;10.60;99.90;;;;;;5044735;28;20120;-74
2022/06/04 04:22:49;;;;;;;11.88;7.55;;;10.70;99.90;;;;;;5042926;28;20041;-73
2022/06/04 04:25:17;;;;;;;13.77;7.18;;;10.70;99.90;;;;;;5027920;28;20113;-74
2022/06/04 04:27:43;;;;;;;13.88;6.63;;;10.80;99.90;;;;;;5044823;28;20093;-74
2022/06/04 04:30:12;;;;;;;12.70;6.82;;;10.90;99.90;;;;;;5046782;28;20056;-74
2022/06/04 04:32:38;;;;;;;12.68;6.35;;;10.90;99.90;;;;;;5061754;28;20493;-74
2022/06/04 04:35:07;;;;;;;10.27;6.60;;;11.00;99.90;;;;;;5042831;28;20098;-75
2022/06/04 04:37:33;;;;;;;12.10;6.57;;;11.10;99.90;;;;;;5060541;28;20041;-74
2022/06/04 04:39:59;;;;;;;8.43;5.85;;;11.10;99.90;;;;;;5026915;28;20139;-74
2022/06/04 04:42:25;;;;;;;10.52;6.00;;;11.20;99.90;;;;;;5027913;28;20474;-74
2022/06/04 04:44:51;;;;;;;11.75;6.32;;;11.30;99.90;;;;;;5060823;28;20045;-74
2022/06/04 04:47:17;;;;;;;12.80;6.85;;;11.30;99.90;;;;;;5062731;28;20471;-74
2022/06/04 04:49:43;;;;;;;12.13;6.30;;;11.40;99.90;;;;;;5050085;28;20053;-74
2022/06/04 04:52:09;;;;;;;9.40;6.20;;;11.50;99.90;;;;;;5046257;28;20048;-74
2022/06/04 04:54:35;;;;;;;10.68;6.40;;;11.50;99.90;;;;;;5035087;28;20516;-74
2022/06/04 04:57:01;;;;;;;11.57;6.30;;;11.70;99.90;;;;;;5072410;28;20037;-74
2022/06/04 04:59:27;;;;;;;11.05;5.90;;;11.70;99.90;;;;;;5045799;28;20520;-74
2022/06/04 05:01:53;;;;;;;9.10;5.75;;;11.90;99.90;;;;;;5051134;28;20052;-74
2022/06/04 05:04:19;;;;;;;8.88;5.55;;;11.90;99.90;;;;;;5051933;28;20060;-75
2022/06/04 05:06:45;;;;;;;12.32;6.53;;;12.00;99.90;;;;;;5042082;28;20405;-74
2022/06/04 05:09:11;;;;;;;13.63;6.00;;;12.10;99.90;;;;;;5064221;28;20045;-75
2022/06/04 05:11:37;;;;;;;11.82;6.15;;;12.20;99.90;;;;;;5035242;28;20148;-74
2022/06/04 05:14:04;;;;;;;11.23;5.70;;;12.30;99.90;;;;;;5042972;28;20096;-75
2022/06/04 05:16:34;;;;;;;9.30;6.15;;;12.40;99.90;;;;;;5039429;28;20498;-75
2022/06/04 05:19:01;;;;;;;10.85;6.20;;;12.40;99.90;;;;;;5044630;28;20493;-75
2022/06/04 05:21:47;;;;;;;9.38;5.40;;;12.50;99.90;;;;;;5053395;28;20049;-74
2022/06/04 05:24:16;;;;;;;9.73;5.95;;;12.60;99.90;;;;;;5044930;28;20497;-74
2022/06/04 05:26:42;;;;;;;9.82;5.40;;;12.70;99.90;;;;;;5055669;28;20056;-73
2022/06/04 05:29:08;;;;;;;11.32;5.65;;;12.70;99.90;;;;;;5075337;28;20053;-75
2022/06/04 05:31:34;;;;;;;12.43;5.53;;;12.80;99.90;;;;;;5067385;28;20107;-74
2022/06/04 05:33:59;;;;;;;10.75;5.55;;;12.90;99.90;;;;;;5018416;28;20049;-75
2022/06/04 05:36:29;;;;;;;10.10;6.35;;;12.90;99.90;;;;;;5025490;28;20048;-74
2022/06/04 05:38:55;;;;;;;11.55;5.75;;;13.00;99.90;;;;;;5056221;28;20044;-74
2022/06/04 05:41:21;;;;;;;10.50;5.68;;;13.00;99.90;;;;;;5052326;28;20152;-74
2022/06/04 05:43:47;;;;;;;11.20;6.18;;;13.10;99.90;;;;;;5032886;28;20389;-76
2022/06/04 05:46:19;;;;;;;10.68;5.97;;;13.20;99.90;;;;;;5050827;28;20084;-74
2022/06/04 05:48:46;;;;;;;10.98;5.97;;;13.20;99.90;;;;;;5043051;28;20041;-74
2022/06/04 05:51:27;;;;;;;10.98;6.18;;;13.30;99.90;;;;;;5041497;28;20088;-74
2022/06/04 05:53:53;;;;;;;7.87;5.60;;;13.40;99.90;;;;;;5052990;28;20057;-74
2022/06/04 05:56:22;;;;;;;11.07;6.20;;;13.50;99.90;;;;;;5024516;28;20045;-74
2022/06/04 05:58:50;;;;;;;9.57;5.47;;;13.50;99.90;;;;;;5035792;28;20099;-75
2022/06/04 06:01:18;;;;;;;9.77;5.75;;;13.60;99.90;;;;;;5033643;28;20136;-75
2022/06/04 06:03:44;;;;;;;8.30;5.35;;;13.70;99.90;;;;;;5017939;28;20130;-74
2022/06/04 06:06:16;;;;;;;8.73;5.35;;;13.80;99.90;;;;;;5033293;28;20475;-74
2022/06/04 06:08:43;;;;;;;8.90;5.07;;;13.80;99.90;;;;;;5049668;28;20107;-75
2022/06/04 06:11:13;;;;;;;7.35;4.80;;;13.70;99.90;;;;;;5044900;28;20490;-74
2022/06/04 06:13:40;;;;;;;9.02;5.28;;;13.70;99.90;;;;;;5063601;28;20057;-74
2022/06/04 06:16:10;;;;;;;8.70;5.78;;;13.70;99.90;;;;;;5057960;28;20057;-75
2022/06/04 06:18:36;;;;;;;9.25;5.13;;;13.80;99.90;;;;;;5068762;28;20048;-74
2022/06/04 06:21:17;;;;;;;7.57;5.28;;;13.90;99.90;;;;;;5024869;28;20040;-74
2022/06/04 06:23:44;;;;;;;9.43;5.77;;;14.10;99.90;;;;;;5034469;28;20076;-74
2022/06/04 06:26:13;;;;;;;8.70;5.05;;;14.10;99.90;;;;;;5042567;28;20268;-75
2022/06/04 06:28:40;;;;;;;9.93;5.05;;;14.30;99.90;;;;;;5035132;28;20052;-74
2022/06/04 06:31:08;;;;;;;11.48;5.43;;;14.50;99.90;;;;;;5041531;28;20393;-74
2022/06/04 06:33:35;;;;;;;7.40;5.03;;;14.50;99.90;;;;;;5035695;28;20054;-75
2022/06/04 06:36:06;;;;;;;8.30;5.40;;;14.70;99.90;;;;;;5060536;28;20383;-76
2022/06/04 06:38:33;;;;;;;9.40;5.00;;;14.60;99.90;;;;;;5051152;28;20424;-74
2022/06/04 06:41:00;;;;;;;10.90;5.38;;;14.70;99.90;;;;;;5059334;28;20049;-74
2022/06/04 06:43:46;;;;;;;8.45;5.45;;;14.70;99.90;;;;;;5061857;28;20052;-75
2022/06/04 06:46:15;;;;;;;9.98;4.80;;;14.70;99.90;;;;;;5068198;28;20144;-74
2022/06/04 06:48:45;;;;;;;9.75;5.10;;;14.80;99.90;;;;;;5054475;28;20061;-74
2022/06/04 06:51:18;;;;;;;9.27;4.80;;;14.80;99.90;;;;;;5059678;28;20048;-74
2022/06/04 06:53:44;;;;;;;8.35;5.00;;;14.70;99.90;;;;;;5063142;28;20048;-75
2022/06/04 06:56:19;;;;;;;7.38;4.97;;;14.60;99.90;;;;;;5034607;28;20038;-75
2022/06/04 06:58:46;;;;;;;8.95;5.10;;;14.70;99.90;;;;;;5054367;28;20087;-74
2022/06/04 07:01:13;;;;;;;8.90;5.47;;;14.90;99.90;;;;;;5061387;28;20242;-74
2022/06/04 07:03:40;;;;;;;7.18;5.03;;;15.10;99.90;;;;;;5056356;28;20145;-75
2022/06/04 07:06:08;;;;;;;6.43;4.88;;;15.20;99.90;;;;;;5043592;28;20045;-75
2022/06/04 07:08:39;;;;;;;7.70;4.97;;;15.40;99.90;;;;;;5048704;28;20079;-74
2022/06/04 07:11:05;;;;;;;8.57;5.25;;;15.40;99.90;;;;;;5083491;28;20048;-74
2022/06/04 07:13:31;;;;;;;8.73;5.07;;;15.40;99.90;;;;;;5054470;28;20056;-75
2022/06/04 07:15:58;;;;;;;10.15;5.07;;;15.40;99.90;;;;;;5031283;28;20048;-74
2022/06/04 07:18:24;;;;;;;8.02;4.90;;;15.50;99.90;;;;;;5054158;28;20048;-74
2022/06/04 07:20:51;;;;;;;7.85;5.35;;;15.50;99.90;;;;;;5080885;28;20049;-75
2022/06/04 07:23:18;;;;;;;8.35;4.70;;;15.60;99.90;;;;;;5065284;28;20040;-74
2022/06/04 07:25:46;;;;;;;9.63;5.43;;;15.80;99.90;;;;;;5046850;28;20056;-74
2022/06/04 07:28:13;;;;;;;7.85;4.93;;;16.00;99.90;;;;;;5023248;28;20053;-76
2022/06/04 07:30:39;;;;;;;7.15;4.97;;;16.00;99.90;;;;;;5067142;28;20605;-75
2022/06/04 07:33:05;;;;;;;7.57;5.10;;;16.10;99.90;;;;;;5071974;28;20045;-75
2022/06/04 07:35:31;;;;;;;6.50;4.80;;;16.10;99.90;;;;;;5040389;28;20124;-75
2022/06/04 07:37:57;;;;;;;8.48;5.40;;;16.20;99.90;;;;;;5049783;28;20132;-75
2022/06/04 07:40:24;;;;;;;7.13;4.68;;;16.20;99.90;;;;;;5036065;28;20381;-75
2022/06/04 07:42:50;;;;;;;10.65;4.72;;;16.40;99.90;;;;;;5074131;28;20047;-75
2022/06/04 07:45:16;;;;;;;7.18;4.57;;;16.40;99.90;;;;;;5028859;28;20048;-74
2022/06/04 07:47:44;;;;;;;7.07;4.68;;;16.50;99.90;;;;;;5049586;28;20686;-74
2022/06/04 07:50:12;;;;;;;10.27;5.20;;;16.60;99.90;;;;;;5063829;28;20563;-74
2022/06/04 07:52:38;;;;;;;8.27;5.10;;;16.70;99.90;;;;;;5062184;28;20050;-74
2022/06/04 07:55:06;;;;;;;8.15;5.22;;;16.70;99.90;;;;;;5036690;28;20128;-76
2022/06/04 07:57:36;;;;;;;7.70;5.10;;;16.80;99.90;;;;;;5085109;28;20106;-75
2022/06/04 08:00:05;;;;;;;7.47;4.95;;;16.90;99.90;;;;;;5052127;28;20052;-74
2022/06/04 08:02:31;;;;;;;8.73;5.15;;;17.00;99.90;;;;;;5083274;28;20099;-75
2022/06/04 08:04:57;;;;;;;7.85;4.78;;;16.90;99.90;;;;;;5081887;28;20072;-75
2022/06/04 08:07:24;;;;;;;9.10;4.75;;;17.00;99.90;;;;;;5051760;28;20071;-74
2022/06/04 08:09:50;;;;;;;7.88;5.00;;;17.10;99.90;;;;;;5032160;28;20486;-76
2022/06/04 08:12:18;;;;;;;5.45;4.38;;;17.10;99.90;;;;;;5048848;28;20059;-75
2022/06/04 08:14:45;;;;;;;7.75;4.93;;;17.20;99.90;;;;;;5053119;28;20137;-77
2022/06/04 08:17:12;;;;;;;11.95;4.47;;;17.20;99.90;;;;;;5055335;28;20131;-75
2022/06/04 08:19:38;;;;;;;6.93;4.85;;;17.30;99.90;;;;;;5055297;28;20053;-75
2022/06/04 08:22:05;;;;;;;6.85;4.68;;;17.40;99.90;;;;;;5032504;28;20633;-75
2022/06/04 08:24:31;;;;;;;9.38;4.47;;;17.50;99.90;;;;;;5035840;28;20123;-75
2022/06/04 08:26:58;;;;;;;7.82;4.50;;;17.60;99.90;;;;;;5052175;28;20405;-74
2022/06/04 08:29:30;;;;;;;6.20;4.80;;;17.70;99.90;;;;;;5052506;28;20057;-74
2022/06/04 08:31:57;;;;;;;5.47;4.13;;;17.80;99.90;;;;;;5035956;28;20079;-75
2022/06/04 08:34:23;;;;;;;6.18;4.10;;;17.90;99.90;;;;;;5046111;28;20049;-74
2022/06/04 08:36:50;;;;;;;8.02;4.53;;;18.00;99.90;;;;;;5035584;28;20128;-75
2022/06/04 08:39:17;;;;;;;6.80;4.55;;;18.00;99.90;;;;;;5068700;28;20464;-74
2022/06/04 08:42:11;;;;;;;7.38;4.70;;;18.10;99.90;;;;;;5047924;28;20105;-75
2022/06/04 08:44:45;;;;;;;6.70;4.43;;;18.10;99.90;;;;;;5085461;28;20148;-76
2022/06/04 08:47:35;;;;;;;8.20;4.55;;;18.20;99.90;;;;;;5078425;28;20064;-76
2022/06/04 08:50:10;;;;;;;5.18;4.03;;;18.20;99.90;;;;;;5029110;28;20053;-75
2022/06/04 08:52:42;;;;;;;7.40;4.80;;;18.30;99.90;;;;;;5034941;28;20457;-75
2022/06/04 08:58:42;;;;;;;7.25;4.88;;;18.50;99.90;;;;;;5049070;28;20106;-76
2022/06/04 09:01:18;;;;;;;5.90;4.05;;;18.60;99.90;;;;;;5047284;28;20658;-75
2022/06/04 09:04:10;;;;;;;6.00;4.00;;;18.50;99.90;;;;;;5077729;28;20060;-74
2022/06/04 09:06:48;;;;;;;5.80;4.60;;;18.60;99.90;;;;;;5075785;28;20409;-75
2022/06/04 09:09:20;;;;;;;6.32;4.38;;;18.70;99.90;;;;;;5077554;28;20117;-74
2022/06/04 09:12:18;;;;;;;6.43;4.18;;;18.70;99.90;;;;;;5057669;28;20083;-74
2022/06/04 09:14:53;;;;;;;6.82;4.40;;;19.00;99.90;;;;;;5029614;28;20086;-75
2022/06/04 09:17:36;;;;;;;5.15;4.10;;;19.20;99.90;;;;;;5080161;28;20136;-76
2022/06/04 09:20:12;;;;;;;6.40;4.28;;;19.20;99.90;;;;;;5040701;28;20047;-74
2022/06/04 09:22:42;;;;;;;7.63;4.13;;;19.30;99.90;;;;;;5036150;28;20048;-75
2022/06/04 09:25:16;;;;;;;8.20;4.40;;;19.30;99.90;;;;;;5056541;28;20092;-76
2022/06/04 09:27:45;;;;;;;12.30;4.30;;;19.20;99.90;;;;;;5061554;28;20044;-77
2022/06/04 09:30:22;;;;;;;6.53;4.10;;;19.30;99.90;;;;;;5062211;28;20731;-75
2022/06/04 09:32:55;;;;;;;5.00;4.28;;;19.40;99.90;;;;;;5057090;28;20044;-76
2022/06/04 09:35:28;;;;;;;6.97;4.30;;;19.50;99.90;;;;;;5063117;28;20135;-75
2022/06/04 09:37:54;;;;;;;6.55;4.45;;;19.50;99.90;;;;;;5056724;28;20526;-76
2022/06/04 09:40:30;;;;;;;5.45;3.70;;;19.70;99.90;;;;;;5039335;28;20105;-76
2022/06/04 09:43:14;;;;;;;5.93;3.97;;;19.60;99.90;;;;;;5057599;28;20044;-74
2022/06/04 09:45:41;;;;;;;4.93;3.78;;;19.60;99.90;;;;;;5057125;28;20037;-76
2022/06/04 09:48:19;;;;;;;7.55;4.30;;;19.60;99.90;;;;;;5075169;28;20060;-75
2022/06/04 09:50:55;;;;;;;6.25;4.88;;;19.90;99.90;;;;;;5043599;28;20097;-75
2022/06/04 09:53:28;;;;;;;5.78;4.22;;;20.10;99.90;;;;;;5060993;28;20044;-75
2022/06/04 09:55:58;;;;;;;6.40;4.65;;;20.30;99.90;;;;;;5056919;28;20048;-75
2022/06/04 09:58:32;;;;;;;6.25;4.60;;;20.20;99.90;;;;;;5059917;28;20617;-75
2022/06/04 10:01:04;;;;;;;7.38;5.10;;;20.10;99.90;;;;;;5057521;28;20060;-75
2022/06/04 10:03:34;;;;;;;5.80;4.47;;;20.10;99.90;;;;;;5058777;28;20040;-75
2022/06/04 10:06:09;;;;;;;7.55;4.68;;;20.20;99.90;;;;;;5058846;28;20131;-76
2022/06/04 10:11:30;;;;;;;7.38;4.47;;;20.20;99.90;;;;;;5030004;28;20079;-75
2022/06/04 10:13:57;;;;;;;4.82;4.03;;;20.10;99.90;;;;;;5014709;28;20045;-76
2022/06/04 10:16:36;;;;;;;6.63;4.25;;;20.10;99.90;;;;;;5057317;28;20052;-75
2022/06/04 10:19:16;;;;;;;6.10;4.30;;;20.30;99.90;;;;;;5057040;28;20082;-75
2022/06/04 10:21:44;;;;;;;5.97;3.88;;;20.60;99.90;;;;;;5052061;28;20076;-75
2022/06/04 10:24:28;;;;;;;5.85;3.55;;;20.70;99.90;;;;;;5053840;28;20055;-75
2022/06/04 10:27:13;;;;;;;5.03;3.80;;;20.90;99.90;;;;;;5060567;28;20048;-75
2022/06/04 10:29:57;;;;;;;5.50;3.67;;;21.00;99.30;;;;;;5057992;28;20555;-75
2022/06/04 10:33:14;;;;;;;5.18;3.70;;;21.20;99.40;;;;;;5058850;28;20045;-75
2022/06/04 10:36:17;;;;;;;5.65;3.53;;;21.10;95.10;;;;;;4983099;28;20069;-75
2022/06/04 10:39:16;;;;;;;5.50;3.50;;;21.20;96.80;;;;;;4985832;28;20072;-76
2022/06/04 10:42:01;;;;;;;6.15;3.95;;;21.10;89.50;;;;;;5039280;28;20440;-75
2022/06/04 10:44:37;;;;;;;5.55;4.18;;;21.00;95.20;;;;;;5041103;28;20044;-76
2022/06/04 10:47:24;;;;;;;4.78;3.67;;;21.00;93.40;;;;;;5079488;28;20144;-75
2022/06/04 10:49:59;;;;;;;5.45;3.80;;;21.20;95.40;;;;;;5060435;28;20501;-75
2022/06/04 10:52:31;;;;;;;5.78;3.70;;;21.20;93.20;;;;;;5054861;28;20079;-75
2022/06/04 10:55:20;;;;;;;6.28;3.30;;;21.10;94.20;;;;;;5076903;28;20067;-75
2022/06/04 10:58:03;;;;;;;6.65;3.53;;;21.30;93.20;;;;;;5070353;28;20465;-74
2022/06/04 11:00:56;;;;;;;5.47;3.55;;;21.00;91.80;;;;;;5051096;28;20049;-76
2022/06/04 11:03:36;;;;;;;6.45;3.63;;;20.90;92.70;;;;;;5080865;28;20041;-75
2022/06/04 11:06:18;;;;;;;5.32;3.35;;;21.10;91.60;;;;;;5055920;28;20523;-76
2022/06/04 11:08:53;;;;;;;5.80;3.42;;;21.00;93.80;;;;;;5057271;28;20059;-75
2022/06/04 11:11:37;;;;;;;5.55;3.30;;;21.20;93.90;;;;;;5042249;28;20076;-75
2022/06/04 11:14:24;;;;;;;6.53;3.47;;;21.30;93.90;;;;;;5043029;28;20049;-75
2022/06/04 11:17:14;;;;;;;5.90;3.92;;;21.80;93.20;;;;;;5062430;28;20053;-75
2022/06/04 11:19:52;;;;;;;5.75;3.28;;;22.00;92.40;;;;;;5026095;28;20378;-75
2022/06/04 11:22:36;;;;;;;5.15;3.38;;;22.30;92.00;;;;;;5057973;28;20053;-76
2022/06/04 11:25:32;;;;;;;5.43;3.35;;;22.40;91.00;;;;;;5039240;28;20122;-75
2022/06/04 11:28:06;;;;;;;11.10;3.63;;;22.20;87.60;;;;;;5053684;28;20056;-75
2022/06/04 11:31:05;;;;;;;6.70;3.83;;;22.10;90.00;;;;;;5066841;28;20482;-75
2022/06/04 11:33:46;;;;;;;5.22;3.90;;;22.00;85.20;;;;;;5074599;28;20052;-76
2022/06/04 11:36:34;;;;;;;6.03;3.85;;;22.20;90.80;;;;;;5052717;28;20057;-75
2022/06/04 11:39:02;;;;;;;6.47;3.67;;;22.40;86.00;;;;;;5046022;28;20053;-76
2022/06/04 11:41:53;;;;;;;5.00;3.83;;;22.30;90.80;;;;;;5086179;28;20472;-75
2022/06/04 11:44:44;;;;;;;3.85;3.25;;;22.40;88.00;;;;;;5053581;28;20053;-75
2022/06/04 11:47:35;;;;;;;4.07;3.30;;;22.30;85.50;;;;;;5084558;28;20059;-75
2022/06/04 11:50:28;;;;;;;5.53;3.70;;;22.60;82.00;;;;;;5081653;28;20052;-75
2022/06/04 11:53:29;;;;;;;4.82;3.40;;;22.60;79.10;;;;;;5061158;28;20072;-75
2022/06/04 11:56:33;;;;;;;5.47;3.20;;;22.70;83.20;;;;;;5059628;28;20063;-75
2022/06/04 11:59:01;;;;;;;3.88;3.10;;;22.70;74.80;;;;;;5058889;28;20059;-75
2022/06/04 12:01:34;;;;;;;4.07;3.20;;;22.70;80.50;;;;;;5059765;28;20366;-76
2022/06/04 12:04:12;;;;;;;6.78;3.30;;;22.80;77.30;;;;;;5037310;28;20126;-76
2022/06/04 12:07:03;;;;;;;3.92;2.92;;;22.70;78.00;;;;;;5060737;28;20055;-75
2022/06/04 12:09:35;;;;;;;;;;;23.00;74.60;;;;;;5081797;28;20055;-76
2022/06/04 12:12:16;;;;;;;5.03;3.42;;;23.00;73.70;;;;;;5059511;28;19974;-76
2022/06/04 12:14:50;;;;;;;6.78;4.28;;;23.10;74.30;;;;;;5071029;28;20765;-76
2022/06/04 12:17:24;;;;;;;5.30;3.83;;;23.30;74.20;;;;;;5079913;28;20390;-76
2022/06/04 12:26:37;;;;;;;5.82;3.30;;;23.80;71.40;;;;;;5052758;28;20040;-76
2022/06/04 12:29:31;;;;;;;7.97;3.60;;;24.30;70.00;;;;;;5047980;28;20076;-75
2022/06/04 12:32:18;;;;;;;5.20;3.13;;;24.50;71.80;;;;;;5034779;28;20469;-74
2022/06/04 12:34:45;;;;;;;6.28;3.80;;;24.90;72.20;;;;;;5082065;28;20103;-75
2022/06/04 12:37:32;;;;;;;6.57;3.70;;;24.90;70.80;;;;;;5044539;28;20382;-77
2022/06/04 12:40:13;;;;;;;6.32;3.90;;;24.60;65.90;;;;;;5056657;28;20484;-75
2022/06/04 12:42:39;;;;;;;5.82;3.60;;;24.90;69.20;;;;;;5036321;28;20064;-74
2022/06/04 12:45:46;;;;;;;7.88;3.85;;;24.60;70.10;;;;;;5080665;28;20045;-76
2022/06/04 12:48:31;;;;;;;4.07;3.60;;;24.90;67.70;;;;;;5081537;28;20057;-76
2022/06/04 12:51:03;;;;;;;5.03;3.83;;;25.00;67.00;;;;;;5058109;28;20048;-75
2022/06/04 12:53:32;;;;;;;5.55;3.33;;;24.60;66.90;;;;;;5059502;28;20064;-76
2022/06/04 12:56:07;;;;;;;4.47;3.45;;;24.60;68.40;;;;;;5058398;28;20123;-75
2022/06/04 12:58:49;;;;;;;4.22;3.63;;;24.70;66.40;;;;;;5058663;28;20461;-76
2022/06/04 13:01:18;;;;;;;4.80;3.50;;;25.10;64.40;;;;;;5065115;28;20055;-75
2022/06/04 13:03:50;;;;;;;7.35;3.80;;;25.50;66.30;;;;;;5034356;28;20485;-77
2022/06/04 13:06:38;;;;;;;7.82;4.00;;;25.80;64.00;;;;;;5069030;28;20549;-77
2022/06/04 13:09:30;;;;;;;5.93;3.47;;;25.90;62.10;;;;;;5058798;28;20045;-76
2022/06/04 13:12:15;;;;;;;5.97;3.75;;;26.20;60.50;;;;;;5056287;28;20175;-76
2022/06/04 13:14:46;;;;;;;4.75;3.63;;;26.40;62.60;;;;;;5085388;28;20052;-76
2022/06/04 13:17:31;;;;;;;6.65;3.65;;;26.00;61.00;;;;;;5048142;28;20128;-76
2022/06/04 13:20:03;;;;;;;6.05;3.65;;;26.10;58.90;;;;;;5059068;28;20045;-76
2022/06/04 13:22:44;;;;;;;9.20;3.75;;;25.80;60.70;;;;;;5076963;28;20080;-76
2022/06/04 13:25:17;;;;;;;7.97;3.70;;;25.90;60.80;;;;;;5051506;28;20075;-76
2022/06/04 13:27:51;;;;;;;6.80;3.33;;;26.40;61.40;;;;;;5051824;28;20057;-75
2022/06/04 13:30:37;;;;;;;7.10;3.90;;;27.30;61.40;;;;;;5050178;28;20121;-76